Terminal Aerodrome Forecast
Issued by NWS Wilmington, NC

Home | Current Version | Previous Version | Text Only | Print | Product List | Glossary On
Versions: 1 2 3 4 5 6 7 8 9 10 11 12 13 14
000
FTUS42 KILM 302329
TAFMYR
TAF
KMYR 302329Z 3100/3124 14005KT P6SM -RA SCT020 SCT070 BKN110
      TEMPO 3100/3104 3SM -RA BR BKN009 OVC025
     FM310400 VRB03KT 5SM -RA BR BKN012 BKN025 OVC050
     FM311000 12004KT 4SM -SHRA BR OVC025
     FM311800 15011G18KT 6SM -RA BR SCT025 BKN050 OVC100
      AMD LTD TO CLD VIS AND WIND 3104/3111=

USA.gov is the U.S. government's official web portal to all federal, state and local government web resources and services.